sensor_id;sensor_type;location;lat;lon;timestamp;P1;durP1;ratioP1;P2;durP2;ratioP2
71959;SDS011;59832;51.146;14.024;2022-07-23T00:00:58;3.20;;;3.00;;
71959;SDS011;59832;51.146;14.024;2022-07-23T00:03:26;4.68;;;3.33;;
71959;SDS011;59832;51.146;14.024;2022-07-23T00:05:53;4.53;;;3.30;;
71959;SDS011;59832;51.146;14.024;2022-07-23T00:08:19;3.20;;;3.00;;
71959;SDS011;59832;51.146;14.024;2022-07-23T00:10:47;8.80;;;3.00;;
71959;SDS011;59832;51.146;14.024;2022-07-23T00:13:20;3.60;;;3.33;;
71959;SDS011;59832;51.146;14.024;2022-07-23T00:15:53;5.80;;;3.60;;
71959;SDS011;59832;51.146;14.024;2022-07-23T00:18:22;4.15;;;3.40;;
71959;SDS011;59832;51.146;14.024;2022-07-23T00:20:50;4.63;;;3.50;;
71959;SDS011;59832;51.146;14.024;2022-07-23T00:23:20;3.72;;;3.28;;
71959;SDS011;59832;51.146;14.024;2022-07-23T00:25:53;3.58;;;3.25;;
71959;SDS011;59832;51.146;14.024;2022-07-23T00:28:29;6.80;;;3.17;;
71959;SDS011;59832;51.146;14.024;2022-07-23T00:31:04;5.90;;;3.33;;
71959;SDS011;59832;51.146;14.024;2022-07-23T00:33:37;6.00;;;3.90;;
71959;SDS011;59832;51.146;14.024;2022-07-23T00:36:10;5.35;;;4.10;;
71959;SDS011;59832;51.146;14.024;2022-07-23T00:38:39;4.60;;;4.28;;
71959;SDS011;59832;51.146;14.024;2022-07-23T00:41:13;4.50;;;4.10;;
71959;SDS011;59832;51.146;14.024;2022-07-23T00:43:42;3.95;;;3.60;;
71959;SDS011;59832;51.146;14.024;2022-07-23T00:46:18;5.55;;;4.10;;
71959;SDS011;59832;51.146;14.024;2022-07-23T00:48:49;5.65;;;3.90;;
71959;SDS011;59832;51.146;14.024;2022-07-23T00:51:18;4.40;;;3.70;;
71959;SDS011;59832;51.146;14.024;2022-07-23T00:53:47;5.10;;;3.70;;
71959;SDS011;59832;51.146;14.024;2022-07-23T00:56:14;6.35;;;3.53;;
71959;SDS011;59832;51.146;14.024;2022-07-23T00:58:41;3.78;;;3.47;;
71959;SDS011;59832;51.146;14.024;2022-07-23T01:01:14;7.63;;;3.90;;
71959;SDS011;59832;51.146;14.024;2022-07-23T01:03:45;6.60;;;3.60;;
71959;SDS011;59832;51.146;14.024;2022-07-23T01:06:11;7.03;;;3.20;;
71959;SDS011;59832;51.146;14.024;2022-07-23T01:08:38;4.40;;;3.70;;
71959;SDS011;59832;51.146;14.024;2022-07-23T01:11:05;4.00;;;3.70;;
71959;SDS011;59832;51.146;14.024;2022-07-23T01:13:31;6.53;;;3.88;;
71959;SDS011;59832;51.146;14.024;2022-07-23T01:15:58;7.17;;;3.50;;
71959;SDS011;59832;51.146;14.024;2022-07-23T01:18:24;4.63;;;4.05;;
71959;SDS011;59832;51.146;14.024;2022-07-23T01:20:51;6.07;;;3.80;;
71959;SDS011;59832;51.146;14.024;2022-07-23T01:23:17;5.53;;;3.73;;
71959;SDS011;59832;51.146;14.024;2022-07-23T01:25:53;4.33;;;3.93;;
71959;SDS011;59832;51.146;14.024;2022-07-23T01:28:20;5.22;;;3.92;;
71959;SDS011;59832;51.146;14.024;2022-07-23T01:30:47;5.43;;;3.78;;
71959;SDS011;59832;51.146;14.024;2022-07-23T01:33:14;4.85;;;3.85;;
71959;SDS011;59832;51.146;14.024;2022-07-23T01:35:41;4.30;;;3.90;;
71959;SDS011;59832;51.146;14.024;2022-07-23T01:38:07;4.90;;;4.23;;
71959;SDS011;59832;51.146;14.024;2022-07-23T01:40:33;4.57;;;3.90;;
71959;SDS011;59832;51.146;14.024;2022-07-23T01:43:00;4.43;;;4.07;;
71959;SDS011;59832;51.146;14.024;2022-07-23T01:45:26;5.20;;;4.10;;
71959;SDS011;59832;51.146;14.024;2022-07-23T01:47:53;5.63;;;4.40;;
71959;SDS011;59832;51.146;14.024;2022-07-23T01:50:19;9.73;;;4.33;;
71959;SDS011;59832;51.146;14.024;2022-07-23T01:52:46;7.50;;;4.23;;
71959;SDS011;59832;51.146;14.024;2022-07-23T01:55:12;4.50;;;4.10;;
71959;SDS011;59832;51.146;14.024;2022-07-23T01:57:44;5.07;;;4.57;;
71959;SDS011;59832;51.146;14.024;2022-07-23T02:00:10;5.57;;;4.53;;
71959;SDS011;59832;51.146;14.024;2022-07-23T02:02:37;5.00;;;4.15;;
71959;SDS011;59832;51.146;14.024;2022-07-23T02:05:04;5.75;;;4.20;;
71959;SDS011;59832;51.146;14.024;2022-07-23T02:07:31;4.45;;;4.10;;
71959;SDS011;59832;51.146;14.024;2022-07-23T02:10:00;6.63;;;4.03;;
71959;SDS011;59832;51.146;14.024;2022-07-23T02:12:26;5.23;;;4.40;;
71959;SDS011;59832;51.146;14.024;2022-07-23T02:14:53;5.27;;;4.20;;
71959;SDS011;59832;51.146;14.024;2022-07-23T02:17:19;7.33;;;4.30;;
71959;SDS011;59832;51.146;14.024;2022-07-23T02:19:46;5.63;;;4.03;;
71959;SDS011;59832;51.146;14.024;2022-07-23T02:22:12;5.77;;;4.00;;
71959;SDS011;59832;51.146;14.024;2022-07-23T02:24:38;6.33;;;4.10;;
71959;SDS011;59832;51.146;14.024;2022-07-23T02:27:05;9.47;;;4.47;;
71959;SDS011;59832;51.146;14.024;2022-07-23T02:29:31;4.63;;;4.22;;
71959;SDS011;59832;51.146;14.024;2022-07-23T02:31:58;4.25;;;3.95;;
71959;SDS011;59832;51.146;14.024;2022-07-23T02:34:24;5.57;;;4.30;;
71959;SDS011;59832;51.146;14.024;2022-07-23T02:36:51;4.65;;;4.25;;
71959;SDS011;59832;51.146;14.024;2022-07-23T02:39:18;8.37;;;4.77;;
71959;SDS011;59832;51.146;14.024;2022-07-23T02:41:44;4.80;;;4.40;;
71959;SDS011;59832;51.146;14.024;2022-07-23T02:44:11;5.97;;;4.30;;
71959;SDS011;59832;51.146;14.024;2022-07-23T02:46:37;4.80;;;4.50;;
71959;SDS011;59832;51.146;14.024;2022-07-23T02:49:04;4.70;;;4.30;;
71959;SDS011;59832;51.146;14.024;2022-07-23T02:51:32;6.00;;;4.38;;
71959;SDS011;59832;51.146;14.024;2022-07-23T02:53:58;5.57;;;4.17;;
71959;SDS011;59832;51.146;14.024;2022-07-23T02:56:25;4.93;;;4.03;;
71959;SDS011;59832;51.146;14.024;2022-07-23T02:58:51;6.32;;;4.90;;
71959;SDS011;59832;51.146;14.024;2022-07-23T03:01:18;5.43;;;4.30;;
71959;SDS011;59832;51.146;14.024;2022-07-23T03:03:46;9.85;;;4.55;;
71959;SDS011;59832;51.146;14.024;2022-07-23T03:06:13;5.50;;;4.87;;
71959;SDS011;59832;51.146;14.024;2022-07-23T03:08:39;5.05;;;4.70;;
71959;SDS011;59832;51.146;14.024;2022-07-23T03:11:06;6.20;;;5.67;;
71959;SDS011;59832;51.146;14.024;2022-07-23T03:13:37;8.93;;;4.63;;
71959;SDS011;59832;51.146;14.024;2022-07-23T03:16:04;5.85;;;5.30;;
71959;SDS011;59832;51.146;14.024;2022-07-23T03:18:31;5.85;;;5.30;;
71959;SDS011;59832;51.146;14.024;2022-07-23T03:21:05;6.63;;;4.90;;
71959;SDS011;59832;51.146;14.024;2022-07-23T03:23:31;9.68;;;5.63;;
71959;SDS011;59832;51.146;14.024;2022-07-23T03:25:58;6.07;;;5.47;;
71959;SDS011;59832;51.146;14.024;2022-07-23T03:28:24;6.23;;;5.23;;
71959;SDS011;59832;51.146;14.024;2022-07-23T03:30:51;9.07;;;5.13;;
71959;SDS011;59832;51.146;14.024;2022-07-23T03:33:18;7.40;;;5.05;;
71959;SDS011;59832;51.146;14.024;2022-07-23T03:35:47;6.50;;;5.20;;
71959;SDS011;59832;51.146;14.024;2022-07-23T03:38:14;8.93;;;5.68;;
71959;SDS011;59832;51.146;14.024;2022-07-23T03:40:41;6.75;;;6.03;;
71959;SDS011;59832;51.146;14.024;2022-07-23T03:43:07;11.75;;;5.55;;
71959;SDS011;59832;51.146;14.024;2022-07-23T03:45:34;6.07;;;5.57;;
71959;SDS011;59832;51.146;14.024;2022-07-23T03:48:00;8.30;;;5.40;;
71959;SDS011;59832;51.146;14.024;2022-07-23T03:50:27;7.90;;;6.07;;
71959;SDS011;59832;51.146;14.024;2022-07-23T03:52:53;12.40;;;5.63;;
71959;SDS011;59832;51.146;14.024;2022-07-23T03:55:20;8.43;;;5.97;;
71959;SDS011;59832;51.146;14.024;2022-07-23T03:57:46;6.60;;;6.00;;
71959;SDS011;59832;51.146;14.024;2022-07-23T04:00:13;7.60;;;6.00;;
71959;SDS011;59832;51.146;14.024;2022-07-23T04:02:40;6.60;;;5.85;;
71959;SDS011;59832;51.146;14.024;2022-07-23T04:05:07;5.72;;;5.32;;
71959;SDS011;59832;51.146;14.024;2022-07-23T04:07:33;10.57;;;5.82;;
71959;SDS011;59832;51.146;14.024;2022-07-23T04:10:00;7.83;;;5.70;;
71959;SDS011;59832;51.146;14.024;2022-07-23T04:12:26;5.77;;;5.10;;
71959;SDS011;59832;51.146;14.024;2022-07-23T04:14:52;7.03;;;6.33;;
71959;SDS011;59832;51.146;14.024;2022-07-23T04:17:19;6.23;;;5.73;;
71959;SDS011;59832;51.146;14.024;2022-07-23T04:19:45;6.13;;;5.60;;
71959;SDS011;59832;51.146;14.024;2022-07-23T04:22:12;7.57;;;6.23;;
71959;SDS011;59832;51.146;14.024;2022-07-23T04:24:38;6.75;;;6.07;;
71959;SDS011;59832;51.146;14.024;2022-07-23T04:27:05;6.80;;;6.15;;
71959;SDS011;59832;51.146;14.024;2022-07-23T04:29:31;6.60;;;5.90;;
71959;SDS011;59832;51.146;14.024;2022-07-23T04:31:58;5.82;;;5.18;;
71959;SDS011;59832;51.146;14.024;2022-07-23T04:34:25;9.07;;;5.20;;
71959;SDS011;59832;51.146;14.024;2022-07-23T04:36:52;8.20;;;5.40;;
71959;SDS011;59832;51.146;14.024;2022-07-23T04:39:20;6.07;;;5.57;;
71959;SDS011;59832;51.146;14.024;2022-07-23T04:41:46;6.15;;;5.47;;
71959;SDS011;59832;51.146;14.024;2022-07-23T04:44:13;9.93;;;5.40;;
71959;SDS011;59832;51.146;14.024;2022-07-23T04:46:40;5.72;;;5.22;;
71959;SDS011;59832;51.146;14.024;2022-07-23T04:49:06;6.47;;;5.40;;
71959;SDS011;59832;51.146;14.024;2022-07-23T04:51:33;5.65;;;5.15;;
71959;SDS011;59832;51.146;14.024;2022-07-23T04:54:00;5.67;;;5.10;;
71959;SDS011;59832;51.146;14.024;2022-07-23T04:56:26;5.50;;;5.10;;
71959;SDS011;59832;51.146;14.024;2022-07-23T04:58:52;11.17;;;5.43;;
71959;SDS011;59832;51.146;14.024;2022-07-23T05:01:19;5.63;;;5.10;;
71959;SDS011;59832;51.146;14.024;2022-07-23T05:03:45;5.70;;;5.17;;
71959;SDS011;59832;51.146;14.024;2022-07-23T05:06:12;5.75;;;5.25;;
71959;SDS011;59832;51.146;14.024;2022-07-23T05:08:38;6.90;;;5.80;;
71959;SDS011;59832;51.146;14.024;2022-07-23T05:11:04;9.00;;;5.17;;
71959;SDS011;59832;51.146;14.024;2022-07-23T05:13:31;6.53;;;5.72;;
71959;SDS011;59832;51.146;14.024;2022-07-23T05:15:57;6.47;;;5.50;;
71959;SDS011;59832;51.146;14.024;2022-07-23T05:18:24;10.63;;;6.30;;
71959;SDS011;59832;51.146;14.024;2022-07-23T05:20:50;8.00;;;5.93;;
71959;SDS011;59832;51.146;14.024;2022-07-23T05:23:17;12.07;;;6.20;;
71959;SDS011;59832;51.146;14.024;2022-07-23T05:25:43;6.63;;;5.80;;
71959;SDS011;59832;51.146;14.024;2022-07-23T05:28:10;11.17;;;6.23;;
71959;SDS011;59832;51.146;14.024;2022-07-23T05:30:36;9.33;;;6.33;;
71959;SDS011;59832;51.146;14.024;2022-07-23T05:33:03;7.15;;;6.28;;
71959;SDS011;59832;51.146;14.024;2022-07-23T05:35:29;9.57;;;6.38;;
71959;SDS011;59832;51.146;14.024;2022-07-23T05:37:56;14.00;;;6.20;;
71959;SDS011;59832;51.146;14.024;2022-07-23T05:40:22;6.67;;;5.97;;
71959;SDS011;59832;51.146;14.024;2022-07-23T05:42:49;8.35;;;6.40;;
71959;SDS011;59832;51.146;14.024;2022-07-23T05:45:15;6.40;;;5.90;;
71959;SDS011;59832;51.146;14.024;2022-07-23T05:47:45;9.52;;;6.38;;
71959;SDS011;59832;51.146;14.024;2022-07-23T05:50:15;9.95;;;6.45;;
71959;SDS011;59832;51.146;14.024;2022-07-23T05:52:42;7.22;;;6.53;;
71959;SDS011;59832;51.146;14.024;2022-07-23T05:55:09;7.20;;;6.10;;
71959;SDS011;59832;51.146;14.024;2022-07-23T05:57:36;7.35;;;5.88;;
71959;SDS011;59832;51.146;14.024;2022-07-23T06:00:03;7.90;;;6.03;;
71959;SDS011;59832;51.146;14.024;2022-07-23T06:02:31;6.57;;;6.07;;
71959;SDS011;59832;51.146;14.024;2022-07-23T06:04:57;6.97;;;5.97;;
71959;SDS011;59832;51.146;14.024;2022-07-23T06:07:24;9.47;;;5.80;;
71959;SDS011;59832;51.146;14.024;2022-07-23T06:09:50;7.53;;;5.85;;
71959;SDS011;59832;51.146;14.024;2022-07-23T06:12:17;6.47;;;5.60;;
71959;SDS011;59832;51.146;14.024;2022-07-23T06:14:43;6.15;;;5.70;;
71959;SDS011;59832;51.146;14.024;2022-07-23T06:17:12;8.50;;;5.40;;
71959;SDS011;59832;51.146;14.024;2022-07-23T06:19:56;5.82;;;5.30;;
71959;SDS011;59832;51.146;14.024;2022-07-23T06:22:22;7.53;;;5.35;;
71959;SDS011;59832;51.146;14.024;2022-07-23T06:24:49;7.77;;;5.63;;
71959;SDS011;59832;51.146;14.024;2022-07-23T06:27:17;6.65;;;5.60;;
71959;SDS011;59832;51.146;14.024;2022-07-23T06:29:50;5.82;;;5.03;;
71959;SDS011;59832;51.146;14.024;2022-07-23T06:32:17;5.53;;;5.03;;
71959;SDS011;59832;51.146;14.024;2022-07-23T06:34:43;6.67;;;5.03;;
71959;SDS011;59832;51.146;14.024;2022-07-23T06:37:13;5.22;;;4.72;;
71959;SDS011;59832;51.146;14.024;2022-07-23T06:39:40;5.85;;;5.13;;
71959;SDS011;59832;51.146;14.024;2022-07-23T06:42:07;7.20;;;4.72;;
71959;SDS011;59832;51.146;14.024;2022-07-23T06:44:34;6.80;;;4.70;;
71959;SDS011;59832;51.146;14.024;2022-07-23T06:47:00;8.37;;;5.03;;
71959;SDS011;59832;51.146;14.024;2022-07-23T06:49:27;5.10;;;4.70;;
71959;SDS011;59832;51.146;14.024;2022-07-23T06:51:53;4.80;;;4.50;;
71959;SDS011;59832;51.146;14.024;2022-07-23T06:54:19;5.37;;;4.60;;
71959;SDS011;59832;51.146;14.024;2022-07-23T06:56:46;4.88;;;4.40;;
71959;SDS011;59832;51.146;14.024;2022-07-23T06:59:12;5.00;;;4.63;;
71959;SDS011;59832;51.146;14.024;2022-07-23T07:01:39;5.67;;;4.60;;
71959;SDS011;59832;51.146;14.024;2022-07-23T07:04:05;7.67;;;6.43;;
71959;SDS011;59832;51.146;14.024;2022-07-23T07:06:32;7.53;;;6.82;;
71959;SDS011;59832;51.146;14.024;2022-07-23T07:08:58;9.18;;;6.60;;
71959;SDS011;59832;51.146;14.024;2022-07-23T07:11:25;8.75;;;7.82;;
71959;SDS011;59832;51.146;14.024;2022-07-23T07:13:51;9.23;;;6.97;;
71959;SDS011;59832;51.146;14.024;2022-07-23T07:16:18;9.40;;;6.73;;
71959;SDS011;59832;51.146;14.024;2022-07-23T07:18:44;7.70;;;7.00;;
71959;SDS011;59832;51.146;14.024;2022-07-23T07:21:11;7.60;;;6.70;;
71959;SDS011;59832;51.146;14.024;2022-07-23T07:23:37;9.70;;;7.47;;
71959;SDS011;59832;51.146;14.024;2022-07-23T07:26:04;10.57;;;7.32;;
71959;SDS011;59832;51.146;14.024;2022-07-23T07:28:30;7.80;;;7.05;;
71959;SDS011;59832;51.146;14.024;2022-07-23T07:30:56;9.77;;;7.13;;
71959;SDS011;59832;51.146;14.024;2022-07-23T07:33:23;7.80;;;7.00;;
71959;SDS011;59832;51.146;14.024;2022-07-23T07:35:49;7.50;;;6.85;;
71959;SDS011;59832;51.146;14.024;2022-07-23T07:38:16;6.95;;;6.22;;
71959;SDS011;59832;51.146;14.024;2022-07-23T07:40:42;7.77;;;6.87;;
71959;SDS011;59832;51.146;14.024;2022-07-23T07:43:09;7.57;;;6.87;;
71959;SDS011;59832;51.146;14.024;2022-07-23T07:45:35;6.97;;;6.37;;
71959;SDS011;59832;51.146;14.024;2022-07-23T07:48:01;6.47;;;5.97;;
71959;SDS011;59832;51.146;14.024;2022-07-23T07:50:28;7.10;;;6.40;;
71959;SDS011;59832;51.146;14.024;2022-07-23T07:53:08;5.97;;;5.47;;
71959;SDS011;59832;51.146;14.024;2022-07-23T07:55:40;6.22;;;5.57;;
71959;SDS011;59832;51.146;14.024;2022-07-23T07:58:07;6.00;;;5.60;;
71959;SDS011;59832;51.146;14.024;2022-07-23T08:00:37;5.80;;;5.27;;
71959;SDS011;59832;51.146;14.024;2022-07-23T08:03:15;8.13;;;5.13;;
71959;SDS011;59832;51.146;14.024;2022-07-23T08:05:45;6.35;;;4.68;;
71959;SDS011;59832;51.146;14.024;2022-07-23T08:08:12;5.60;;;5.13;;
71959;SDS011;59832;51.146;14.024;2022-07-23T08:10:43;5.03;;;4.53;;
71959;SDS011;59832;51.146;14.024;2022-07-23T08:13:14;4.63;;;4.32;;
71959;SDS011;59832;51.146;14.024;2022-07-23T08:15:53;4.80;;;4.40;;
71959;SDS011;59832;51.146;14.024;2022-07-23T08:18:20;4.80;;;4.22;;
71959;SDS011;59832;51.146;14.024;2022-07-23T08:20:47;5.82;;;4.53;;
71959;SDS011;59832;51.146;14.024;2022-07-23T08:23:17;5.78;;;4.30;;
71959;SDS011;59832;51.146;14.024;2022-07-23T08:25:55;5.25;;;4.28;;
71959;SDS011;59832;51.146;14.024;2022-07-23T08:28:23;4.70;;;4.30;;
71959;SDS011;59832;51.146;14.024;2022-07-23T08:30:49;7.93;;;3.95;;
71959;SDS011;59832;51.146;14.024;2022-07-23T08:33:17;5.10;;;4.70;;
71959;SDS011;59832;51.146;14.024;2022-07-23T08:35:58;5.13;;;4.72;;
71959;SDS011;59832;51.146;14.024;2022-07-23T08:38:26;5.10;;;4.20;;
71959;SDS011;59832;51.146;14.024;2022-07-23T08:40:54;7.78;;;4.82;;
71959;SDS011;59832;51.146;14.024;2022-07-23T08:43:24;6.20;;;4.07;;
71959;SDS011;59832;51.146;14.024;2022-07-23T08:45:53;9.73;;;4.80;;
71959;SDS011;59832;51.146;14.024;2022-07-23T08:48:27;6.75;;;4.10;;
71959;SDS011;59832;51.146;14.024;2022-07-23T08:50:59;4.90;;;4.25;;
71959;SDS011;59832;51.146;14.024;2022-07-23T08:53:30;5.93;;;4.50;;
71959;SDS011;59832;51.146;14.024;2022-07-23T08:56:00;5.88;;;4.70;;
71959;SDS011;59832;51.146;14.024;2022-07-23T08:58:28;7.80;;;4.50;;
71959;SDS011;59832;51.146;14.024;2022-07-23T09:00:56;6.45;;;5.32;;
71959;SDS011;59832;51.146;14.024;2022-07-23T09:03:25;5.63;;;5.03;;
71959;SDS011;59832;51.146;14.024;2022-07-23T09:05:53;5.47;;;5.07;;
71959;SDS011;59832;51.146;14.024;2022-07-23T09:08:34;8.60;;;4.90;;
71959;SDS011;59832;51.146;14.024;2022-07-23T09:11:05;6.05;;;5.55;;
71959;SDS011;59832;51.146;14.024;2022-07-23T09:13:42;6.55;;;4.90;;
71959;SDS011;59832;51.146;14.024;2022-07-23T09:16:13;6.00;;;5.32;;
71959;SDS011;59832;51.146;14.024;2022-07-23T09:18:46;5.57;;;4.72;;
71959;SDS011;59832;51.146;14.024;2022-07-23T09:21:29;6.78;;;4.78;;
71959;SDS011;59832;51.146;14.024;2022-07-23T09:24:02;6.53;;;4.90;;
71959;SDS011;59832;51.146;14.024;2022-07-23T09:26:39;6.90;;;4.80;;
71959;SDS011;59832;51.146;14.024;2022-07-23T09:29:17;6.40;;;4.38;;
71959;SDS011;59832;51.146;14.024;2022-07-23T09:34:17;5.50;;;4.90;;
71959;SDS011;59832;51.146;14.024;2022-07-23T09:36:49;8.93;;;4.65;;
71959;SDS011;59832;51.146;14.024;2022-07-23T09:39:51;5.63;;;5.05;;
71959;SDS011;59832;51.146;14.024;2022-07-23T09:42:18;6.90;;;4.93;;
71959;SDS011;59832;51.146;14.024;2022-07-23T09:44:48;6.60;;;4.38;;
71959;SDS011;59832;51.146;14.024;2022-07-23T09:47:16;4.82;;;4.32;;
71959;SDS011;59832;51.146;14.024;2022-07-23T09:52:48;7.35;;;4.97;;
71959;SDS011;59832;51.146;14.024;2022-07-23T09:55:17;7.18;;;4.57;;
71959;SDS011;59832;51.146;14.024;2022-07-23T09:58:08;5.22;;;4.32;;
71959;SDS011;59832;51.146;14.024;2022-07-23T10:00:39;87.53;;;7.78;;
71959;SDS011;59832;51.146;14.024;2022-07-23T10:03:06;8.93;;;4.65;;
71959;SDS011;59832;51.146;14.024;2022-07-23T10:05:35;4.53;;;4.13;;
71959;SDS011;59832;51.146;14.024;2022-07-23T10:08:02;4.95;;;4.45;;
71959;SDS011;59832;51.146;14.024;2022-07-23T10:10:29;4.63;;;4.22;;
71959;SDS011;59832;51.146;14.024;2022-07-23T10:12:56;7.70;;;4.50;;
71959;SDS011;59832;51.146;14.024;2022-07-23T10:15:23;6.57;;;4.68;;
71959;SDS011;59832;51.146;14.024;2022-07-23T10:18:01;4.70;;;4.30;;
71959;SDS011;59832;51.146;14.024;2022-07-23T10:34:28;7.13;;;5.03;;
71959;SDS011;59832;51.146;14.024;2022-07-23T10:37:14;5.60;;;4.40;;
71959;SDS011;59832;51.146;14.024;2022-07-23T10:39:50;6.55;;;4.30;;
71959;SDS011;59832;51.146;14.024;2022-07-23T10:42:37;6.00;;;4.78;;
71959;SDS011;59832;51.146;14.024;2022-07-23T10:47:52;5.15;;;4.72;;
71959;SDS011;59832;51.146;14.024;2022-07-23T10:50:24;5.47;;;4.97;;
71959;SDS011;59832;51.146;14.024;2022-07-23T10:53:12;5.20;;;4.65;;
71959;SDS011;59832;51.146;14.024;2022-07-23T10:55:45;5.20;;;4.70;;
71959;SDS011;59832;51.146;14.024;2022-07-23T10:58:21;6.45;;;4.50;;
71959;SDS011;59832;51.146;14.024;2022-07-23T11:00:49;6.72;;;4.85;;
71959;SDS011;59832;51.146;14.024;2022-07-23T11:03:32;7.38;;;4.80;;
71959;SDS011;59832;51.146;14.024;2022-07-23T11:06:05;5.50;;;5.00;;
71959;SDS011;59832;51.146;14.024;2022-07-23T11:08:32;5.53;;;4.78;;
71959;SDS011;59832;51.146;14.024;2022-07-23T11:13:28;7.18;;;4.47;;
71959;SDS011;59832;51.146;14.024;2022-07-23T11:24:09;6.20;;;4.35;;
71959;SDS011;59832;51.146;14.024;2022-07-23T11:29:37;5.30;;;4.80;;
71959;SDS011;59832;51.146;14.024;2022-07-23T11:32:20;8.13;;;4.43;;
71959;SDS011;59832;51.146;14.024;2022-07-23T11:34:50;5.15;;;4.85;;
71959;SDS011;59832;51.146;14.024;2022-07-23T11:37:29;5.20;;;4.70;;
71959;SDS011;59832;51.146;14.024;2022-07-23T11:39:59;7.57;;;5.32;;
71959;SDS011;59832;51.146;14.024;2022-07-23T11:44:59;6.72;;;4.57;;
71959;SDS011;59832;51.146;14.024;2022-07-23T11:47:27;6.82;;;4.55;;
71959;SDS011;59832;51.146;14.024;2022-07-23T11:50:00;10.13;;;4.80;;
71959;SDS011;59832;51.146;14.024;2022-07-23T11:52:29;8.43;;;4.28;;
71959;SDS011;59832;51.146;14.024;2022-07-23T11:57:30;4.72;;;4.32;;
71959;SDS011;59832;51.146;14.024;2022-07-23T12:00:06;5.35;;;4.85;;
71959;SDS011;59832;51.146;14.024;2022-07-23T12:02:36;7.82;;;4.60;;
71959;SDS011;59832;51.146;14.024;2022-07-23T12:05:12;6.18;;;4.63;;
71959;SDS011;59832;51.146;14.024;2022-07-23T12:07:42;5.18;;;4.20;;
71959;SDS011;59832;51.146;14.024;2022-07-23T12:10:15;8.60;;;4.50;;
71959;SDS011;59832;51.146;14.024;2022-07-23T12:15:29;4.75;;;4.35;;
71959;SDS011;59832;51.146;14.024;2022-07-23T12:18:03;5.13;;;4.60;;
71959;SDS011;59832;51.146;14.024;2022-07-23T12:20:32;7.60;;;4.70;;
71959;SDS011;59832;51.146;14.024;2022-07-23T12:23:02;6.60;;;4.78;;
71959;SDS011;59832;51.146;14.024;2022-07-23T12:25:32;5.00;;;4.60;;
71959;SDS011;59832;51.146;14.024;2022-07-23T12:30:37;8.25;;;4.30;;
71959;SDS011;59832;51.146;14.024;2022-07-23T12:33:08;6.45;;;4.88;;
71959;SDS011;59832;51.146;14.024;2022-07-23T12:38:09;5.40;;;4.88;;
71959;SDS011;59832;51.146;14.024;2022-07-23T12:40:44;6.70;;;4.95;;
71959;SDS011;59832;51.146;14.024;2022-07-23T12:43:25;6.65;;;5.13;;
71959;SDS011;59832;51.146;14.024;2022-07-23T12:45:57;5.38;;;4.97;;
71959;SDS011;59832;51.146;14.024;2022-07-23T12:51:04;5.97;;;5.18;;
71959;SDS011;59832;51.146;14.024;2022-07-23T12:53:52;5.47;;;4.97;;
71959;SDS011;59832;51.146;14.024;2022-07-23T13:01:22;8.85;;;5.25;;
71959;SDS011;59832;51.146;14.024;2022-07-23T13:06:53;5.63;;;5.10;;
71959;SDS011;59832;51.146;14.024;2022-07-23T13:09:26;5.30;;;4.80;;
71959;SDS011;59832;51.146;14.024;2022-07-23T13:11:58;5.45;;;4.80;;
71959;SDS011;59832;51.146;14.024;2022-07-23T13:14:26;6.55;;;4.40;;
71959;SDS011;59832;51.146;14.024;2022-07-23T13:16:53;5.75;;;5.18;;
71959;SDS011;59832;51.146;14.024;2022-07-23T13:19:22;6.13;;;5.63;;
71959;SDS011;59832;51.146;14.024;2022-07-23T13:21:51;5.97;;;5.47;;
71959;SDS011;59832;51.146;14.024;2022-07-23T13:24:18;6.68;;;6.03;;
71959;SDS011;59832;51.146;14.024;2022-07-23T13:26:45;7.47;;;6.35;;
71959;SDS011;59832;51.146;14.024;2022-07-23T13:29:13;6.70;;;6.10;;
71959;SDS011;59832;51.146;14.024;2022-07-23T13:31:42;7.25;;;6.60;;
71959;SDS011;59832;51.146;14.024;2022-07-23T13:34:11;6.55;;;6.10;;
71959;SDS011;59832;51.146;14.024;2022-07-23T13:36:38;7.15;;;6.40;;
71959;SDS011;59832;51.146;14.024;2022-07-23T13:39:04;6.55;;;5.97;;
71959;SDS011;59832;51.146;14.024;2022-07-23T13:41:34;8.13;;;6.40;;
71959;SDS011;59832;51.146;14.024;2022-07-23T13:44:02;6.28;;;5.80;;
71959;SDS011;59832;51.146;14.024;2022-07-23T13:48:56;6.95;;;6.28;;
71959;SDS011;59832;51.146;14.024;2022-07-23T13:51:26;6.90;;;6.30;;
71959;SDS011;59832;51.146;14.024;2022-07-23T13:53:54;6.72;;;6.20;;
71959;SDS011;59832;51.146;14.024;2022-07-23T13:56:20;7.30;;;6.60;;
71959;SDS011;59832;51.146;14.024;2022-07-23T13:58:47;6.80;;;6.20;;
71959;SDS011;59832;51.146;14.024;2022-07-23T14:01:14;7.53;;;6.72;;
71959;SDS011;59832;51.146;14.024;2022-07-23T14:03:43;6.85;;;6.32;;
71959;SDS011;59832;51.146;14.024;2022-07-23T14:06:10;7.10;;;6.53;;
71959;SDS011;59832;51.146;14.024;2022-07-23T14:08:41;6.97;;;6.25;;
71959;SDS011;59832;51.146;14.024;2022-07-23T14:11:09;7.13;;;6.43;;
71959;SDS011;59832;51.146;14.024;2022-07-23T14:13:36;6.47;;;5.97;;
71959;SDS011;59832;51.146;14.024;2022-07-23T14:16:02;6.43;;;5.85;;
71959;SDS011;59832;51.146;14.024;2022-07-23T14:20:59;7.35;;;6.55;;
71959;SDS011;59832;51.146;14.024;2022-07-23T14:23:27;6.45;;;5.97;;
71959;SDS011;59832;51.146;14.024;2022-07-23T14:25:53;6.32;;;5.72;;
71959;SDS011;59832;51.146;14.024;2022-07-23T14:28:20;6.72;;;6.05;;
71959;SDS011;59832;51.146;14.024;2022-07-23T14:30:47;6.20;;;5.70;;
71959;SDS011;59832;51.146;14.024;2022-07-23T14:33:13;6.60;;;6.10;;
71959;SDS011;59832;51.146;14.024;2022-07-23T14:35:42;6.50;;;5.97;;
71959;SDS011;59832;51.146;14.024;2022-07-23T14:38:09;6.00;;;5.50;;
71959;SDS011;59832;51.146;14.024;2022-07-23T14:40:39;6.20;;;5.72;;
71959;SDS011;59832;51.146;14.024;2022-07-23T14:43:05;6.07;;;5.20;;
71959;SDS011;59832;51.146;14.024;2022-07-23T14:45:37;6.15;;;5.60;;
71959;SDS011;59832;51.146;14.024;2022-07-23T14:48:04;5.15;;;4.75;;
71959;SDS011;59832;51.146;14.024;2022-07-23T14:50:30;6.55;;;5.30;;
71959;SDS011;59832;51.146;14.024;2022-07-23T14:52:57;6.82;;;5.07;;
71959;SDS011;59832;51.146;14.024;2022-07-23T14:55:23;5.63;;;4.63;;
71959;SDS011;59832;51.146;14.024;2022-07-23T14:57:51;4.65;;;4.20;;
71959;SDS011;59832;51.146;14.024;2022-07-23T15:00:17;5.63;;;4.80;;
71959;SDS011;59832;51.146;14.024;2022-07-23T15:02:49;6.03;;;4.65;;
71959;SDS011;59832;51.146;14.024;2022-07-23T15:05:20;4.60;;;4.20;;
71959;SDS011;59832;51.146;14.024;2022-07-23T15:07:46;5.72;;;5.22;;
71959;SDS011;59832;51.146;14.024;2022-07-23T15:10:13;7.40;;;4.63;;
71959;SDS011;59832;51.146;14.024;2022-07-23T15:15:07;5.55;;;4.88;;
71959;SDS011;59832;51.146;14.024;2022-07-23T15:17:35;5.50;;;5.07;;
71959;SDS011;59832;51.146;14.024;2022-07-23T15:20:02;5.70;;;5.30;;
71959;SDS011;59832;51.146;14.024;2022-07-23T15:22:29;5.45;;;5.05;;
71959;SDS011;59832;51.146;14.024;2022-07-23T15:24:56;5.82;;;5.18;;
71959;SDS011;59832;51.146;14.024;2022-07-23T15:27:22;5.30;;;4.90;;
71959;SDS011;59832;51.146;14.024;2022-07-23T15:29:50;5.60;;;5.10;;
71959;SDS011;59832;51.146;14.024;2022-07-23T15:32:17;5.60;;;5.10;;
71959;SDS011;59832;51.146;14.024;2022-07-23T15:34:44;5.28;;;4.88;;
71959;SDS011;59832;51.146;14.024;2022-07-23T15:37:16;5.60;;;5.15;;
71959;SDS011;59832;51.146;14.024;2022-07-23T15:39:43;6.20;;;5.70;;
71959;SDS011;59832;51.146;14.024;2022-07-23T15:42:10;7.75;;;6.05;;
71959;SDS011;59832;51.146;14.024;2022-07-23T15:44:40;6.43;;;5.93;;
71959;SDS011;59832;51.146;14.024;2022-07-23T15:49:37;6.60;;;6.00;;
71959;SDS011;59832;51.146;14.024;2022-07-23T15:52:04;7.22;;;6.53;;